Time;durP1;ratioP1;P1;durP2;ratioP2;P2;SDS_P1;SDS_P2;PMS_P1;PMS_P2;Temp;Humidity;BMP_temperature;BMP_pressure;BME280_temperature;BME280_humidity;BME280_pressure;Samples;Min_cycle;Max_cycle;Signal;HPM_P1;HPM_P2
2021/09/07 00:02:34;;;;;;;8.70;4.90;;;;;;;;;;8158892;28;20519;-72
2021/09/07 00:06:39;;;;;;;9.38;4.45;;;;;;;;;;8195843;28;20372;-72
2021/09/07 00:10:44;;;;;;;9.48;4.75;;;;;;;;;;8191139;28;20076;-72
2021/09/07 00:14:51;;;;;;;9.52;4.25;;;;;;;;;;8191341;28;20472;-72
2021/09/07 00:18:57;;;;;;;11.02;4.57;;;;;;;;;;8194039;28;20461;-72
2021/09/07 00:23:18;;;;;;;8.45;4.28;;;;;;;;;;8192250;28;20381;-72
2021/09/07 00:27:23;;;;;;;9.10;4.90;;;;;;;;;;8192459;28;20389;-72
2021/09/07 00:31:28;;;;;;;9.57;4.75;;;;;;;;;;8207779;28;20457;-72
2021/09/07 00:35:34;;;;;;;10.77;3.90;;;;;;;;;;8191946;28;20069;-72
2021/09/07 00:39:40;;;;;;;8.38;4.45;;;;;;;;;;8190957;28;20072;-72
2021/09/07 00:43:45;;;;;;;12.10;4.88;;;;;;;;;;8174816;28;20492;-72
2021/09/07 00:47:50;;;;;;;10.00;4.75;;;;;;;;;;8190732;28;20492;-72
2021/09/07 00:51:56;;;;;;;8.02;4.35;;;;;;;;;;8193575;28;20386;-72
2021/09/07 00:56:11;;;;;;;7.03;4.07;;;;;;;;;;8192752;28;20053;-72
2021/09/07 01:00:17;;;;;;;8.57;4.32;;;;;;;;;;8189932;28;20377;-72
2021/09/07 01:04:22;;;;;;;11.43;4.90;;;;;;;;;;8191844;28;20060;-72
2021/09/07 01:08:27;;;;;;;13.48;4.82;;;;;;;;;;8190347;28;20496;-72
2021/09/07 01:12:34;;;;;;;9.63;4.20;;;;;;;;;;8190944;28;20357;-72
2021/09/07 01:16:40;;;;;;;12.57;4.43;;;;;;;;;;8189970;28;20504;-73
2021/09/07 01:20:45;;;;;;;11.48;4.72;;;;;;;;;;8189349;28;20469;-72
2021/09/07 01:24:52;;;;;;;8.93;4.53;;;;;;;;;;8192038;28;20068;-72
2021/09/07 01:28:57;;;;;;;8.75;4.15;;;;;;;;;;8190386;28;20050;-73
2021/09/07 01:33:03;;;;;;;7.35;3.80;;;;;;;;;;8191134;28;20068;-72
2021/09/07 01:37:08;;;;;;;7.50;3.72;;;;;;;;;;8196771;28;20441;-72
2021/09/07 01:41:14;;;;;;;12.30;4.68;;;;;;;;;;8196945;28;20496;-72
2021/09/07 01:45:19;;;;;;;9.55;4.20;;;;;;;;;;8196697;28;20068;-72
2021/09/07 01:49:24;;;;;;;8.85;4.38;;;;;;;;;;8197227;28;20038;-72
2021/09/07 01:53:29;;;;;;;10.70;4.45;;;;;;;;;;8194690;28;20485;-73
2021/09/07 01:57:35;;;;;;;10.13;4.57;;;;;;;;;;8197670;28;20446;-73
2021/09/07 02:01:41;;;;;;;9.13;4.00;;;;;;;;;;8196629;28;20491;-72
2021/09/07 02:05:48;;;;;;;10.57;4.03;;;;;;;;;;8195370;28;20466;-72
2021/09/07 02:09:55;;;;;;;6.95;3.72;;;;;;;;;;8195850;28;20077;-72
2021/09/07 02:14:00;;;;;;;6.97;3.65;;;;;;;;;;8178352;28;20062;-72
2021/09/07 02:18:05;;;;;;;9.10;4.10;;;;;;;;;;8179599;28;20457;-72
2021/09/07 02:22:11;;;;;;;6.80;4.18;;;;;;;;;;8196016;28;20049;-72
2021/09/07 02:26:17;;;;;;;7.63;3.95;;;;;;;;;;8195444;28;20465;-73
2021/09/07 02:30:23;;;;;;;9.25;4.18;;;;;;;;;;8195902;28;20457;-72
2021/09/07 02:34:30;;;;;;;7.47;3.70;;;;;;;;;;8195351;28;20046;-73
2021/09/07 02:38:35;;;;;;;10.50;4.20;;;;;;;;;;8192971;28;20049;-72
2021/09/07 02:42:44;;;;;;;9.20;3.65;;;;;;;;;;8194463;28;20477;-72
2021/09/07 02:46:50;;;;;;;6.68;3.88;;;;;;;;;;8194387;28;20050;-72
2021/09/07 02:50:57;;;;;;;8.35;3.78;;;;;;;;;;8196789;28;20392;-73
2021/09/07 02:55:02;;;;;;;7.45;3.83;;;;;;;;;;8194525;28;20353;-72
2021/09/07 02:59:09;;;;;;;10.40;3.92;;;;;;;;;;8194230;28;20421;-72
2021/09/07 03:03:14;;;;;;;8.30;4.55;;;;;;;;;;8192976;28;20381;-72
2021/09/07 03:07:21;;;;;;;7.95;4.35;;;;;;;;;;8193876;28;20042;-72
2021/09/07 03:11:27;;;;;;;10.90;3.42;;;;;;;;;;8194554;28;20476;-73
2021/09/07 03:15:32;;;;;;;9.27;3.90;;;;;;;;;;8193815;28;20484;-73
2021/09/07 03:19:40;;;;;;;7.43;3.63;;;;;;;;;;8194138;28;20373;-72
2021/09/07 03:23:45;;;;;;;8.95;4.03;;;;;;;;;;8193684;28;20050;-72
2021/09/07 03:27:50;;;;;;;11.40;4.15;;;;;;;;;;8196167;28;20339;-72
2021/09/07 03:31:56;;;;;;;8.57;3.92;;;;;;;;;;8193666;28;20054;-72
2021/09/07 03:36:01;;;;;;;8.88;3.75;;;;;;;;;;8193785;28;20362;-72
2021/09/07 03:40:08;;;;;;;9.57;4.75;;;;;;;;;;8209426;28;20461;-72
2021/09/07 03:44:14;;;;;;;8.15;4.25;;;;;;;;;;8195582;28;20379;-72
2021/09/07 03:48:20;;;;;;;7.15;4.13;;;;;;;;;;8193587;28;20335;-73
2021/09/07 03:52:26;;;;;;;9.10;3.75;;;;;;;;;;8193610;28;20393;-72
2021/09/07 03:56:32;;;;;;;8.23;3.78;;;;;;;;;;8190974;28;20472;-73
2021/09/07 04:00:37;;;;;;;7.35;3.22;;;;;;;;;;8207887;28;20341;-72
2021/09/07 04:04:44;;;;;;;8.65;3.83;;;;;;;;;;8192432;28;20053;-72
2021/09/07 04:08:51;;;;;;;7.18;3.55;;;;;;;;;;8192151;28;20519;-72
2021/09/07 04:12:56;;;;;;;5.93;3.63;;;;;;;;;;8191090;28;20441;-74
2021/09/07 04:17:04;;;;;;;6.28;3.30;;;;;;;;;;8190622;28;20335;-72
2021/09/07 04:21:12;;;;;;;8.00;3.50;;;;;;;;;;8192277;28;20652;-72
2021/09/07 04:25:17;;;;;;;7.82;3.88;;;;;;;;;;8193622;28;20473;-72
2021/09/07 04:29:23;;;;;;;10.40;4.13;;;;;;;;;;8191578;28;20064;-72
2021/09/07 04:33:29;;;;;;;6.57;3.58;;;;;;;;;;8191854;28;20042;-73
2021/09/07 04:37:35;;;;;;;9.90;3.42;;;;;;;;;;8190967;28;20475;-72
2021/09/07 04:41:40;;;;;;;8.73;3.70;;;;;;;;;;8191521;28;20516;-72
2021/09/07 04:45:47;;;;;;;8.52;3.65;;;;;;;;;;8190432;28;20365;-72
2021/09/07 04:49:53;;;;;;;6.47;3.80;;;;;;;;;;8192916;28;20049;-72
2021/09/07 04:54:00;;;;;;;9.27;3.40;;;;;;;;;;8191605;28;20356;-73
2021/09/07 04:58:06;;;;;;;6.33;3.30;;;;;;;;;;8191998;28;20412;-73
2021/09/07 05:02:12;;;;;;;9.02;3.15;;;;;;;;;;8194300;28;20983;-72
2021/09/07 05:06:17;;;;;;;6.55;3.22;;;;;;;;;;8191859;28;20042;-72
2021/09/07 05:10:22;;;;;;;9.65;3.40;;;;;;;;;;8197149;28;20358;-72
2021/09/07 05:14:27;;;;;;;7.85;3.15;;;;;;;;;;8199257;28;20442;-73
2021/09/07 05:18:33;;;;;;;6.15;3.58;;;;;;;;;;8213910;28;20042;-72
2021/09/07 05:22:39;;;;;;;7.82;3.72;;;;;;;;;;8197172;28;20060;-72
2021/09/07 05:26:44;;;;;;;8.20;4.18;;;;;;;;;;8197675;28;20068;-72
2021/09/07 05:30:50;;;;;;;9.43;3.70;;;;;;;;;;8195582;28;20480;-72
2021/09/07 05:34:55;;;;;;;10.07;3.65;;;;;;;;;;8196583;28;20461;-73
2021/09/07 05:39:00;;;;;;;6.43;3.50;;;;;;;;;;8196764;28;20503;-72
2021/09/07 05:43:06;;;;;;;7.65;3.10;;;;;;;;;;8196782;28;20488;-72
2021/09/07 05:47:12;;;;;;;9.10;3.53;;;;;;;;;;8196088;28;20042;-72
2021/09/07 05:51:17;;;;;;;9.68;4.10;;;;;;;;;;8195141;28;20349;-72
2021/09/07 05:55:22;;;;;;;11.63;3.38;;;;;;;;;;8194868;28;20072;-72
2021/09/07 05:59:27;;;;;;;6.75;3.72;;;;;;;;;;8197906;28;20487;-72
2021/09/07 06:03:32;;;;;;;8.07;3.83;;;;;;;;;;8197911;28;20339;-71
2021/09/07 06:07:39;;;;;;;9.30;4.38;;;;;;;;;;8198697;28;20401;-72
2021/09/07 06:11:45;;;;;;;7.68;3.55;;;;;;;;;;8195847;28;20365;-73
2021/09/07 06:15:50;;;;;;;10.52;3.88;;;;;;;;;;8196551;28;20365;-72
2021/09/07 06:19:55;;;;;;;8.10;4.20;;;;;;;;;;8194920;28;20373;-72
2021/09/07 06:24:00;;;;;;;7.53;3.70;;;;;;;;;;8197190;28;20429;-71
2021/09/07 06:28:06;;;;;;;7.55;3.75;;;;;;;;;;8194352;28;20479;-72
2021/09/07 06:32:13;;;;;;;9.18;3.30;;;;;;;;;;8197533;28;20065;-72
2021/09/07 06:36:19;;;;;;;7.75;3.42;;;;;;;;;;8196704;28;20465;-71
2021/09/07 06:40:24;;;;;;;12.50;4.32;;;;;;;;;;8197923;28;20346;-71
2021/09/07 06:44:29;;;;;;;8.82;3.22;;;;;;;;;;8197545;28;20349;-72
2021/09/07 06:48:34;;;;;;;8.90;3.15;;;;;;;;;;8194636;28;20330;-71
2021/09/07 06:52:39;;;;;;;4.80;2.80;;;;;;;;;;8193985;28;20049;-71
2021/09/07 06:56:44;;;;;;;13.35;3.33;;;;;;;;;;8195811;28;20468;-72
2021/09/07 07:00:50;;;;;;;6.55;3.55;;;;;;;;;;8194126;28;20045;-73
2021/09/07 07:04:56;;;;;;;6.30;3.03;;;;;;;;;;8197345;28;20061;-72
2021/09/07 07:09:01;;;;;;;5.68;2.53;;;;;;;;;;8195417;28;20057;-71
2021/09/07 07:13:06;;;;;;;8.95;2.90;;;;;;;;;;8193505;28;20450;-71
2021/09/07 07:17:12;;;;;;;5.72;2.63;;;;;;;;;;8193187;28;20461;-72
2021/09/07 07:21:17;;;;;;;7.78;2.90;;;;;;;;;;8194379;28;20389;-72
2021/09/07 07:25:22;;;;;;;6.55;3.40;;;;;;;;;;8194833;28;20042;-72
2021/09/07 07:29:27;;;;;;;6.78;2.88;;;;;;;;;;8193605;28;20076;-72
2021/09/07 07:33:33;;;;;;;6.55;2.50;;;;;;;;;;8190913;28;20476;-72
2021/09/07 07:37:38;;;;;;;8.40;3.28;;;;;;;;;;8193111;28;20504;-72
2021/09/07 07:41:43;;;;;;;7.25;2.80;;;;;;;;;;8177921;28;20346;-72
2021/09/07 07:45:48;;;;;;;16.13;3.15;;;;;;;;;;8192665;28;20077;-72
2021/09/07 07:49:54;;;;;;;5.57;3.10;;;;;;;;;;8194106;28;20338;-72
2021/09/07 07:53:59;;;;;;;12.07;3.42;;;;;;;;;;8193052;28;20369;-72
2021/09/07 07:58:04;;;;;;;6.25;2.75;;;;;;;;;;8192422;28;20095;-72
2021/09/07 08:02:10;;;;;;;7.85;2.83;;;;;;;;;;8191245;28;20377;-72
2021/09/07 08:06:29;;;;;;;5.05;2.55;;;;;;;;;;8192643;28;20053;-72
2021/09/07 08:10:36;;;;;;;10.23;3.42;;;;;;;;;;8191711;28;20080;-72
2021/09/07 08:14:41;;;;;;;7.43;3.58;;;;;;;;;;8175775;28;20454;-72
2021/09/07 08:18:46;;;;;;;6.72;3.05;;;;;;;;;;8192942;28;20461;-72
2021/09/07 08:22:51;;;;;;;7.07;3.05;;;;;;;;;;8145037;28;20346;-72
2021/09/07 08:26:56;;;;;;;6.28;3.17;;;;;;;;;;8208148;28;20053;-72
2021/09/07 08:31:01;;;;;;;11.00;3.25;;;;;;;;;;8195362;28;20465;-72
2021/09/07 08:35:08;;;;;;;6.80;2.92;;;;;;;;;;8195801;28;20366;-72
2021/09/07 08:39:15;;;;;;;8.82;3.40;;;;;;;;;;8193241;28;20064;-72
2021/09/07 08:43:21;;;;;;;7.75;3.35;;;;;;;;;;8197466;28;20379;-72
2021/09/07 08:47:26;;;;;;;6.65;3.53;;;;;;;;;;8200189;28;20322;-72
2021/09/07 08:51:31;;;;;;;6.40;3.10;;;;;;;;;;8199787;28;20350;-72
2021/09/07 08:55:37;;;;;;;28.25;4.22;;;;;;;;;;8201004;28;20457;-71
2021/09/07 08:59:42;;;;;;;7.03;3.28;;;;;;;;;;8196802;28;20094;-72
2021/09/07 09:03:49;;;;;;;5.03;3.00;;;;;;;;;;8199466;28;20469;-71
2021/09/07 09:07:55;;;;;;;7.47;3.13;;;;;;;;;;8181823;28;20376;-73
2021/09/07 09:12:00;;;;;;;9.00;3.33;;;;;;;;;;8199788;28;20388;-72
2021/09/07 09:16:07;;;;;;;4.65;3.13;;;;;;;;;;8198381;28;20499;-72
2021/09/07 09:20:18;;;;;;;6.13;3.38;;;;;;;;;;8196938;28;20327;-72
2021/09/07 09:24:24;;;;;;;6.45;3.50;;;;;;;;;;8197131;28;20084;-71
2021/09/07 09:28:29;;;;;;;7.07;3.03;;;;;;;;;;8195899;28;20045;-72
2021/09/07 09:32:49;;;;;;;5.35;2.97;;;;;;;;;;8196802;28;20490;-72
2021/09/07 09:37:20;;;;;;;9.07;2.97;;;;;;;;;;8180024;28;20389;-72
2021/09/07 09:41:24;;;;;;;6.55;3.22;;;;;;;;;;8180964;28;20054;-73
2021/09/07 09:45:32;;;;;;;5.38;3.17;;;;;;;;;;8196232;28;20465;-71
2021/09/07 09:49:38;;;;;;;8.38;3.40;;;;;;;;;;8197698;28;20042;-72
2021/09/07 09:53:47;;;;;;;8.15;3.72;;;;;;;;;;8196656;28;20361;-72
2021/09/07 09:57:52;;;;;;;8.90;3.90;;;;;;;;;;8195721;28;20495;-72
2021/09/07 10:01:59;;;;;;;5.82;3.47;;;;;;;;;;8195045;28;20050;-72
2021/09/07 10:06:06;;;;;;;7.82;3.88;;;;;;;;;;8196272;28;20368;-72
2021/09/07 10:10:19;;;;;;;8.00;4.05;;;;;;;;;;8195428;28;20454;-71
2021/09/07 10:14:29;;;;;;;9.55;4.03;;;;;;;;;;8195644;28;20038;-72
2021/09/07 10:18:50;;;;;;;15.38;4.70;;;;;;;;;;8196033;28;20356;-72
2021/09/07 10:28:10;;;;;;;14.55;3.70;;;;;;;;;;8196630;28;20481;-72
2021/09/07 10:32:32;;;;;;;15.13;4.80;;;;;;;;;;8177157;28;20475;-72
2021/09/07 10:37:00;;;;;;;12.23;4.00;;;;;;;;;;8194404;28;20496;-72
2021/09/07 10:41:07;;;;;;;6.63;3.53;;;;;;;;;;8194961;28;20500;-72
2021/09/07 10:45:13;;;;;;;9.45;4.60;;;;;;;;;;8194169;28;20487;-72
2021/09/07 10:49:34;;;;;;;16.02;3.65;;;;;;;;;;8193958;28;20473;-72
2021/09/07 10:53:39;;;;;;;5.45;3.47;;;;;;;;;;8193212;28;20049;-72
2021/09/07 10:57:53;;;;;;;8.93;4.30;;;;;;;;;;8176945;28;20499;-72
2021/09/07 11:02:41;;;;;;;6.68;3.90;;;;;;;;;;8193890;28;20404;-72
2021/09/07 11:06:48;;;;;;;6.60;3.75;;;;;;;;;;8193067;28;20506;-73
2021/09/07 11:10:55;;;;;;;10.48;4.28;;;;;;;;;;8193461;28;20058;-72
2021/09/07 11:15:05;;;;;;;;;;;;;;;;;;8196962;28;20447;-71
2021/09/07 11:19:10;;;;;;;7.57;4.10;;;;;;;;;;8194400;28;20362;-72
2021/09/07 11:23:27;;;;;;;12.55;4.28;;;;;;;;;;8192308;28;20484;-72
2021/09/07 11:27:52;;;;;;;8.20;4.20;;;;;;;;;;8193110;28;20503;-71
2021/09/07 11:32:24;;;;;;;11.25;4.70;;;;;;;;;;8176029;28;20384;-71
2021/09/07 11:36:30;;;;;;;13.38;5.13;;;;;;;;;;8194086;28;20045;-73
2021/09/07 11:40:48;;;;;;;13.77;4.72;;;;;;;;;;8195312;28;20512;-72
2021/09/07 11:44:53;;;;;;;9.50;4.28;;;;;;;;;;8191969;28;20508;-72
2021/09/07 11:49:12;;;;;;;14.10;4.70;;;;;;;;;;8195071;28;20450;-72
2021/09/07 11:53:19;;;;;;;8.63;4.63;;;;;;;;;;8191428;28;20484;-72
2021/09/07 11:57:24;;;;;;;7.63;4.40;;;;;;;;;;8191994;28;20370;-73
2021/09/07 12:01:39;;;;;;;8.02;4.13;;;;;;;;;;8193497;28;20494;-72
2021/09/07 12:05:59;;;;;;;7.15;4.22;;;;;;;;;;8191751;28;20477;-72
2021/09/07 12:10:07;;;;;;;9.30;4.10;;;;;;;;;;8193417;28;20481;-72
2021/09/07 12:14:16;;;;;;;11.23;4.50;;;;;;;;;;8191612;28;20370;-73
2021/09/07 12:18:40;;;;;;;7.28;4.75;;;;;;;;;;8147025;28;20067;-72
2021/09/07 12:22:46;;;;;;;9.05;4.78;;;;;;;;;;8190397;28;20480;-71
2021/09/07 12:26:51;;;;;;;11.35;4.32;;;;;;;;;;8194113;28;20103;-72
2021/09/07 12:31:23;;;;;;;10.43;4.75;;;;;;;;;;8135274;28;20548;-72
2021/09/07 12:35:53;;;;;;;9.98;4.45;;;;;;;;;;8207797;28;20488;-72
2021/09/07 12:40:03;;;;;;;10.73;4.40;;;;;;;;;;8209385;28;20367;-72
2021/09/07 12:44:14;;;;;;;8.45;5.03;;;;;;;;;;8224174;28;20498;-72
2021/09/07 12:48:19;;;;;;;9.25;4.53;;;;;;;;;;8207014;28;20416;-72
2021/09/07 12:52:24;;;;;;;10.18;5.63;;;;;;;;;;8225219;28;20448;-72
2021/09/07 12:56:32;;;;;;;11.95;5.78;;;;;;;;;;8207085;28;20496;-71
2021/09/07 13:00:39;;;;;;;9.60;4.70;;;;;;;;;;8207684;28;20496;-72
2021/09/07 13:04:44;;;;;;;11.68;4.85;;;;;;;;;;8227627;28;20045;-71
2021/09/07 13:08:50;;;;;;;7.93;4.30;;;;;;;;;;8205629;28;20516;-72
2021/09/07 13:12:56;;;;;;;11.10;4.70;;;;;;;;;;8191534;28;20172;-72
2021/09/07 13:17:01;;;;;;;10.07;4.43;;;;;;;;;;8206786;28;20498;-72
2021/09/07 13:21:12;;;;;;;7.57;4.57;;;;;;;;;;8206105;28;20460;-72
2021/09/07 13:25:17;;;;;;;13.80;4.72;;;;;;;;;;8206266;28;20041;-72
2021/09/07 13:29:22;;;;;;;7.80;4.65;;;;;;;;;;8226159;28;20041;-72
2021/09/07 13:33:27;;;;;;;11.30;4.35;;;;;;;;;;8212850;28;20041;-71
2021/09/07 13:37:32;;;;;;;14.98;6.03;;;;;;;;;;8230013;28;20476;-73
2021/09/07 13:41:38;;;;;;;9.25;5.28;;;;;;;;;;8211021;28;20057;-73
2021/09/07 13:45:43;;;;;;;9.50;4.88;;;;;;;;;;8229582;28;20506;-71
2021/09/07 13:49:48;;;;;;;18.35;5.28;;;;;;;;;;8228260;28;20459;-72
2021/09/07 13:53:53;;;;;;;10.40;5.45;;;;;;;;;;8229101;28;20042;-72
2021/09/07 13:57:58;;;;;;;10.57;5.40;;;;;;;;;;8212298;28;20484;-72
2021/09/07 14:02:03;;;;;;;10.80;5.45;;;;;;;;;;8230828;28;20041;-72
2021/09/07 14:06:09;;;;;;;13.75;5.85;;;;;;;;;;8194508;28;20411;-72
2021/09/07 14:10:14;;;;;;;11.90;5.10;;;;;;;;;;8228963;28;20379;-71
2021/09/07 14:14:19;;;;;;;17.90;5.35;;;;;;;;;;8210735;28;20495;-72
2021/09/07 14:18:28;;;;;;;9.48;5.65;;;;;;;;;;8229481;28;20472;-72
2021/09/07 14:22:34;;;;;;;8.20;4.75;;;;;;;;;;8230384;28;20467;-72
2021/09/07 14:26:39;;;;;;;12.82;5.15;;;;;;;;;;8211210;28;20380;-71
2021/09/07 14:30:44;;;;;;;12.95;5.63;;;;;;;;;;8212047;28;20452;-72
2021/09/07 14:34:49;;;;;;;13.40;5.72;;;;;;;;;;8210370;28;20393;-73
2021/09/07 14:38:55;;;;;;;10.10;4.70;;;;;;;;;;8211147;28;20379;-73
2021/09/07 14:43:00;;;;;;;9.82;5.38;;;;;;;;;;8226436;28;20452;-72
2021/09/07 14:47:05;;;;;;;9.80;5.20;;;;;;;;;;8211460;28;20037;-72
2021/09/07 14:51:12;;;;;;;18.48;5.25;;;;;;;;;;8210840;28;20372;-72
2021/09/07 14:55:17;;;;;;;10.70;5.22;;;;;;;;;;8228396;28;20476;-71
2021/09/07 14:59:22;;;;;;;13.32;5.60;;;;;;;;;;8209645;28;20368;-72
2021/09/07 15:03:27;;;;;;;11.23;5.35;;;;;;;;;;8209595;28;20372;-72
2021/09/07 15:07:32;;;;;;;15.30;5.68;;;;;;;;;;8209280;28;20472;-72
2021/09/07 15:11:38;;;;;;;10.25;5.18;;;;;;;;;;8194198;28;20396;-71
2021/09/07 15:15:45;;;;;;;10.77;5.75;;;;;;;;;;8193636;28;20442;-71
2021/09/07 15:19:50;;;;;;;15.85;6.18;;;;;;;;;;8193226;28;20476;-72
2021/09/07 15:23:55;;;;;;;11.43;5.88;;;;;;;;;;8193223;28;20473;-71
2021/09/07 15:28:01;;;;;;;12.70;5.90;;;;;;;;;;8192857;28;20480;-72
2021/09/07 15:32:08;;;;;;;13.65;6.22;;;;;;;;;;8193841;28;20465;-71
2021/09/07 15:36:13;;;;;;;7.57;5.15;;;;;;;;;;8193764;28;20480;-71
2021/09/07 15:40:18;;;;;;;10.85;5.93;;;;;;;;;;8196662;28;20488;-71
2021/09/07 15:44:25;;;;;;;9.98;6.05;;;;;;;;;;8195774;28;20364;-73
2021/09/07 15:48:30;;;;;;;9.48;6.05;;;;;;;;;;8192160;28;20361;-73
2021/09/07 15:52:36;;;;;;;18.67;7.65;;;;;;;;;;8192518;28;20037;-72
2021/09/07 15:56:41;;;;;;;25.15;11.55;;;;;;;;;;8175390;28;20477;-71
2021/09/07 16:00:46;;;;;;;24.15;10.13;;;;;;;;;;8193454;28;20334;-71
2021/09/07 16:04:51;;;;;;;17.40;9.82;;;;;;;;;;8195344;28;20356;-72
2021/09/07 16:08:56;;;;;;;13.02;6.97;;;;;;;;;;8198786;28;20472;-71
2021/09/07 16:13:02;;;;;;;10.48;6.47;;;;;;;;;;8225849;28;20380;-72
2021/09/07 16:17:08;;;;;;;11.43;6.40;;;;;;;;;;8224158;28;20046;-71
2021/09/07 16:21:13;;;;;;;11.43;6.32;;;;;;;;;;8207444;28;20352;-71
2021/09/07 16:25:19;;;;;;;8.48;5.80;;;;;;;;;;8224673;28;20492;-71
2021/09/07 16:29:32;;;;;;;10.98;6.32;;;;;;;;;;8225121;28;20461;-71
2021/09/07 16:33:37;;;;;;;15.75;6.47;;;;;;;;;;8137509;28;20464;-72
2021/09/07 16:37:42;;;;;;;14.07;7.07;;;;;;;;;;8207931;28;20472;-72
2021/09/07 16:41:47;;;;;;;20.10;10.82;;;;;;;;;;8208093;28;20358;-72
2021/09/07 16:45:53;;;;;;;26.63;12.43;;;;;;;;;;8224562;28;20379;-72
2021/09/07 16:49:58;;;;;;;47.15;17.65;;;;;;;;;;8224091;28;20379;-72
2021/09/07 16:54:20;;;;;;;52.72;18.55;;;;;;;;;;8224575;28;20415;-71
2021/09/07 16:58:27;;;;;;;20.98;9.88;;;;;;;;;;8226780;28;20352;-71
2021/09/07 17:02:33;;;;;;;22.73;11.03;;;;;;;;;;8224658;28;20460;-72
2021/09/07 17:06:39;;;;;;;40.55;14.93;;;;;;;;;;8213328;28;20067;-71
2021/09/07 17:10:45;;;;;;;71.57;24.58;;;;;;;;;;8194835;28;20497;-71
2021/09/07 17:14:51;;;;;;;85.78;31.42;;;;;;;;;;8198303;28;20397;-71
2021/09/07 17:18:56;;;;;;;48.80;17.85;;;;;;;;;;8198111;28;20349;-71
2021/09/07 17:23:01;;;;;;;40.25;18.88;;;;;;;;;;8197283;28;20364;-72
2021/09/07 17:27:07;;;;;;;33.60;11.88;;;;;;;;;;8198423;28;20476;-72
2021/09/07 17:31:18;;;;;;;17.70;8.95;;;;;;;;;;8196352;28;20388;-71
2021/09/07 17:35:27;;;;;;;15.38;7.45;;;;;;;;;;8180976;28;20075;-72
2021/09/07 17:43:56;;;;;;;22.10;10.95;;;;;;;;;;8196240;28;20118;-71
2021/09/07 17:48:01;;;;;;;17.48;8.00;;;;;;;;;;8197498;28;20465;-72
2021/09/07 17:52:08;;;;;;;17.35;8.65;;;;;;;;;;8198131;28;20339;-71
2021/09/07 17:56:13;;;;;;;15.52;9.40;;;;;;;;;;8195201;28;20372;-71
2021/09/07 18:00:19;;;;;;;15.32;7.65;;;;;;;;;;8181052;28;20425;-72
2021/09/07 18:04:24;;;;;;;27.13;11.82;;;;;;;;;;8199138;28;20360;-71
2021/09/07 18:08:29;;;;;;;17.92;10.23;;;;;;;;;;8198608;28;20499;-72
2021/09/07 18:12:34;;;;;;;22.77;11.32;;;;;;;;;;8228022;28;20411;-71
2021/09/07 18:16:43;;;;;;;15.07;8.73;;;;;;;;;;8228167;28;20453;-72
2021/09/07 18:20:49;;;;;;;17.70;9.65;;;;;;;;;;8228733;28;20045;-71
2021/09/07 18:24:54;;;;;;;18.20;9.57;;;;;;;;;;8229806;28;20415;-72
2021/09/07 18:28:59;;;;;;;25.17;12.68;;;;;;;;;;8230343;28;20388;-72
2021/09/07 18:33:08;;;;;;;41.25;20.23;;;;;;;;;;8212550;28;20444;-72
2021/09/07 18:37:13;;;;;;;38.60;16.58;;;;;;;;;;8228135;28;20356;-72
2021/09/07 18:41:19;;;;;;;29.35;15.40;;;;;;;;;;8209991;28;20076;-72
2021/09/07 18:45:25;;;;;;;24.75;14.02;;;;;;;;;;8211918;28;20467;-72
2021/09/07 18:49:30;;;;;;;22.17;12.40;;;;;;;;;;8230585;28;20229;-73
2021/09/07 18:53:37;;;;;;;24.40;12.85;;;;;;;;;;8210033;28;20411;-72
2021/09/07 18:57:43;;;;;;;20.92;11.82;;;;;;;;;;8210196;28;20384;-71
2021/09/07 19:01:48;;;;;;;25.98;13.35;;;;;;;;;;8227363;28;20472;-72
2021/09/07 19:05:54;;;;;;;24.70;12.73;;;;;;;;;;8228818;28;20443;-72
2021/09/07 19:10:00;;;;;;;32.50;15.88;;;;;;;;;;8226712;28;20354;-72
2021/09/07 19:14:06;;;;;;;28.17;14.98;;;;;;;;;;8208354;28;20234;-71
2021/09/07 19:18:13;;;;;;;27.02;14.15;;;;;;;;;;8227219;28;20487;-74
2021/09/07 19:22:18;;;;;;;29.10;14.50;;;;;;;;;;8210107;28;20368;-72
2021/09/07 19:26:23;;;;;;;24.67;14.02;;;;;;;;;;8224877;28;20456;-71
2021/09/07 19:30:28;;;;;;;26.48;13.98;;;;;;;;;;8208864;28;20483;-72
2021/09/07 19:34:40;;;;;;;24.50;14.57;;;;;;;;;;8210236;28;20499;-72
2021/09/07 19:38:45;;;;;;;24.50;13.65;;;;;;;;;;8209047;28;20614;-72
2021/09/07 19:42:52;;;;;;;27.02;13.65;;;;;;;;;;8226008;28;20354;-72
2021/09/07 19:46:57;;;;;;;24.77;12.32;;;;;;;;;;8225545;28;20460;-72
2021/09/07 19:51:02;;;;;;;26.23;12.75;;;;;;;;;;8192493;28;20471;-72
2021/09/07 19:55:09;;;;;;;24.35;12.88;;;;;;;;;;8209440;28;20352;-72
2021/09/07 19:59:14;;;;;;;30.23;12.38;;;;;;;;;;8225512;28;20358;-73
2021/09/07 20:03:19;;;;;;;29.63;13.10;;;;;;;;;;8225709;28;20410;-72
2021/09/07 20:07:24;;;;;;;27.55;13.55;;;;;;;;;;8224869;28;20541;-72
2021/09/07 20:11:29;;;;;;;28.52;12.65;;;;;;;;;;8192213;28;20497;-72
2021/09/07 20:15:35;;;;;;;24.35;13.90;;;;;;;;;;8193441;28;20527;-72
2021/09/07 20:19:41;;;;;;;24.00;12.38;;;;;;;;;;8193592;28;20368;-72
2021/09/07 20:23:46;;;;;;;22.58;12.25;;;;;;;;;;8192905;28;20072;-72
2021/09/07 20:27:52;;;;;;;26.42;13.32;;;;;;;;;;8192871;28;20477;-72
2021/09/07 20:31:57;;;;;;;23.95;13.07;;;;;;;;;;8191101;28;20489;-72
2021/09/07 20:36:02;;;;;;;29.50;14.63;;;;;;;;;;8192181;28;20568;-72
2021/09/07 20:40:09;;;;;;;29.00;14.38;;;;;;;;;;8198009;28;20460;-72
2021/09/07 20:44:14;;;;;;;37.83;14.63;;;;;;;;;;8210675;28;20472;-72
2021/09/07 20:48:22;;;;;;;24.07;12.97;;;;;;;;;;8227026;28;20472;-72
2021/09/07 20:52:27;;;;;;;23.85;12.32;;;;;;;;;;8226650;28;20994;-72
2021/09/07 20:56:32;;;;;;;23.02;11.15;;;;;;;;;;8226664;28;20377;-72
2021/09/07 21:00:37;;;;;;;24.30;12.20;;;;;;;;;;8226504;28;20399;-72
2021/09/07 21:04:43;;;;;;;21.30;12.57;;;;;;;;;;8225926;28;20377;-73
2021/09/07 21:08:48;;;;;;;22.35;11.45;;;;;;;;;;8225342;28;20349;-72
2021/09/07 21:12:52;;;;;;;22.48;11.73;;;;;;;;;;8223699;28;20486;-72
2021/09/07 21:16:58;;;;;;;24.55;12.40;;;;;;;;;;8198329;28;20459;-72
2021/09/07 21:21:03;;;;;;;24.17;12.35;;;;;;;;;;8198026;28;20349;-72
2021/09/07 21:25:09;;;;;;;25.40;11.60;;;;;;;;;;8198130;28;20457;-72
2021/09/07 21:29:15;;;;;;;20.60;11.15;;;;;;;;;;8197802;28;20480;-72
2021/09/07 21:33:20;;;;;;;22.70;11.68;;;;;;;;;;8198327;28;20104;-73
2021/09/07 21:37:26;;;;;;;28.52;13.60;;;;;;;;;;8198776;28;20405;-72
2021/09/07 21:41:35;;;;;;;30.45;14.52;;;;;;;;;;8180540;28;20341;-72
2021/09/07 21:45:40;;;;;;;;;;;;;;;;;;8199819;28;20504;-72
2021/09/07 21:49:45;;;;;;;27.35;12.40;;;;;;;;;;8196278;28;20367;-72
2021/09/07 21:53:50;;;;;;;24.80;12.60;;;;;;;;;;8197276;28;20469;-72
2021/09/07 21:57:56;;;;;;;22.05;10.77;;;;;;;;;;8168070;28;20062;-73
2021/09/07 22:02:01;;;;;;;19.95;10.63;;;;;;;;;;8165111;28;20077;-72
2021/09/07 22:06:07;;;;;;;22.33;11.60;;;;;;;;;;8164180;28;20366;-72
2021/09/07 22:10:13;;;;;;;20.40;10.98;;;;;;;;;;8177815;28;20481;-72
2021/09/07 22:14:18;;;;;;;18.25;10.02;;;;;;;;;;8179452;28;20377;-72
2021/09/07 22:18:23;;;;;;;16.52;10.50;;;;;;;;;;8195420;28;20369;-72
2021/09/07 22:22:28;;;;;;;20.08;11.35;;;;;;;;;;8197576;28;20362;-72
2021/09/07 22:26:34;;;;;;;23.77;11.02;;;;;;;;;;8178995;28;20449;-72
2021/09/07 22:30:40;;;;;;;18.40;10.52;;;;;;;;;;8197903;28;20479;-72
2021/09/07 22:34:46;;;;;;;22.40;10.80;;;;;;;;;;8195496;28;20507;-72
2021/09/07 22:38:52;;;;;;;19.58;9.80;;;;;;;;;;8196522;28;20485;-72
2021/09/07 22:42:57;;;;;;;18.45;10.38;;;;;;;;;;8178301;28;20341;-72
2021/09/07 22:47:04;;;;;;;17.45;10.05;;;;;;;;;;8179444;28;20452;-72
2021/09/07 22:51:12;;;;;;;23.52;10.55;;;;;;;;;;8178780;28;20349;-72
2021/09/07 22:55:20;;;;;;;16.58;9.82;;;;;;;;;;8194374;28;20077;-72
2021/09/07 22:59:28;;;;;;;21.10;10.55;;;;;;;;;;8194516;28;20385;-74
2021/09/07 23:03:33;;;;;;;22.60;10.15;;;;;;;;;;8178246;28;20464;-72
2021/09/07 23:07:38;;;;;;;18.00;9.38;;;;;;;;;;8195866;28;20432;-72
2021/09/07 23:11:44;;;;;;;22.30;9.25;;;;;;;;;;8194208;28;20165;-72
2021/09/07 23:15:49;;;;;;;18.42;9.80;;;;;;;;;;8193833;28;20388;-72
2021/09/07 23:19:54;;;;;;;16.45;9.20;;;;;;;;;;8195582;28;20393;-72
2021/09/07 23:24:00;;;;;;;19.95;9.95;;;;;;;;;;8195381;28;20373;-74
2021/09/07 23:28:05;;;;;;;17.25;10.10;;;;;;;;;;8194028;28;20067;-73
2021/09/07 23:32:11;;;;;;;14.60;8.93;;;;;;;;;;8177415;28;20342;-72
2021/09/07 23:36:16;;;;;;;17.08;9.70;;;;;;;;;;8197077;28;20534;-74
2021/09/07 23:40:21;;;;;;;17.50;9.63;;;;;;;;;;8194224;28;20489;-72
2021/09/07 23:44:26;;;;;;;15.45;9.13;;;;;;;;;;8177812;28;20504;-73
2021/09/07 23:48:32;;;;;;;15.63;8.63;;;;;;;;;;8194126;28;20373;-73
2021/09/07 23:52:37;;;;;;;21.88;9.18;;;;;;;;;;8194347;28;20532;-73
2021/09/07 23:56:42;;;;;;;15.65;9.43;;;;;;;;;;8176326;28;20369;-73
